Hartford, Connecticut
Current Conditions -  °F | °C
As of 11:53 AM on Thursday 30 Oct 2014 (Local Time) from KHFD Reporting Station
Clear Clear  
Wind Chill: 55°   Ceiling: Unl
Heat Index: 55°   Visibility: 10mi
Dew Point: 38°   Wind: 10mph
Humidity: 53%   Direction: 260°W
Pressure: 29.97"   Gusts: NA
Location:  41.76°N, 72.67°W
Report Text: KHFD 301553Z 26009KT 10SM CLR 13/03 A2997 RMK AO2 SLP148 T01280033
Loading
Personal Weather Stations






























Interactive Weather Map New forecast layout! Learn more

10-Day Weather Forecast

Advertisements
Track Severe Weather on mobile